Wetterdaten: Woche 28.03.11 - 03.04.11 (KW13)
Datum Zeit Temp. Innen Temp. Aussen UV X Diff Temp. Feuchte Inne Feuchte Auss Sonnenschein Luftdruck Regen ab 0,1 Wind Sonnenschein T Regendauer Windben
28.03.2011 00:00 16,6 C 4,5 C 0,0 UV-I 0,0 C 45 % 72 % 0 % 1012,6 hPa 0,0 l/m 0,0 km/h (0 Bft) 0,00 h 0,00 h 0,0 km/h (0 Bft)
28.03.2011 01:00 16,2 C 4,2 C 0,0 UV-I 0,0 C 45 % 74 % 0 % 1012,7 hPa 0,0 l/m 0,0 km/h (0 Bft) 0,00 h 0,00 h 0,0 km/h (0 Bft)
28.03.2011 02:00 16,0 C 4,4 C 0,0 UV-I 0,0 C 45 % 74 % 0 % 1012,3 hPa 0,0 l/m 0,0 km/h (0 Bft) 0,00 h 0,00 h 0,0 km/h (0 Bft)
28.03.2011 03:00 15,9 C 4,3 C 0,0 UV-I 0,0 C 45 % 74 % 0 % 1012,2 hPa 0,0 l/m 0,0 km/h (0 Bft) 0,00 h 0,00 h 0,0 km/h (0 Bft)
28.03.2011 04:00 15,8 C 4,2 C 0,0 UV-I 0,0 C 44 % 73 % 0 % 1012,1 hPa 0,0 l/m 0,0 km/h (0 Bft) 0,00 h 0,00 h 0,0 km/h (0 Bft)
28.03.2011 05:00 15,6 C 3,2 C 0,0 UV-I 0,0 C 44 % 73 % 0 % 1012,3 hPa 0,0 l/m 0,0 km/h (0 Bft) 0,00 h 0,00 h 0,0 km/h (0 Bft)
28.03.2011 06:00 15,4 C 2,1 C 0,0 UV-I 0,0 C 44 % 76 % 0 % 1012,4 hPa 0,0 l/m 0,0 km/h (0 Bft) 0,00 h 0,00 h 0,0 km/h (0 Bft)
28.03.2011 07:00 15,2 C 1,5 C 0,0 UV-I 0,0 C 43 % 77 % 0 % 1012,8 hPa 0,0 l/m 0,0 km/h (0 Bft) 0,00 h 0,00 h 0,0 km/h (0 Bft)
28.03.2011 08:00 15,1 C 1,8 C 0,0 UV-I 1,0 C 43 % 78 % 24 % 1013,3 hPa 0,0 l/m 0,9 km/h (0 Bft) 0,23 h 0,00 h 2,5 km/h (1 Bft)
28.03.2011 09:00 15,2 C 4,2 C 0,0 UV-I 7,6 C 43 % 74 % 100 % 1014,1 hPa 0,0 l/m 3,1 km/h (1 Bft) 1,00 h 0,00 h 5,0 km/h (1 Bft)
28.03.2011 10:00 15,3 C 6,7 C 0,1 UV-I 7,1 C 44 % 64 % 100 % 1014,7 hPa 0,0 l/m 9,2 km/h (2 Bft) 1,00 h 0,00 h 11,9 km/h (2 Bft)
28.03.2011 11:00 15,5 C 8,4 C 1,5 UV-I 7,1 C 44 % 59 % 100 % 1015,3 hPa 0,0 l/m 9,3 km/h (2 Bft) 1,00 h 0,00 h 12,1 km/h (2 Bft)
28.03.2011 12:00 15,9 C 9,9 C 1,3 UV-I 7,2 C 44 % 56 % 100 % 1015,7 hPa 0,0 l/m 10,0 km/h (2 Bft) 1,00 h 0,00 h 13,0 km/h (3 Bft)
28.03.2011 13:00 16,6 C 10,8 C 5,1 UV-I 6,7 C 43 % 49 % 100 % 1015,9 hPa 0,0 l/m 10,7 km/h (2 Bft) 1,00 h 0,00 h 14,4 km/h (3 Bft)
28.03.2011 14:00 17,9 C 11,9 C 6,9 UV-I 6,8 C 41 % 44 % 100 % 1016,8 hPa 0,0 l/m 9,2 km/h (2 Bft) 1,00 h 0,00 h 11,0 km/h (2 Bft)
28.03.2011 15:00 19,3 C 12,8 C 7,2 UV-I 6,2 C 38 % 40 % 100 % 1017,1 hPa 0,0 l/m 9,6 km/h (2 Bft) 1,00 h 0,00 h 13,4 km/h (3 Bft)
28.03.2011 16:00 20,3 C 13,5 C 4,6 UV-I 5,7 C 36 % 36 % 100 % 1017,6 hPa 0,0 l/m 9,6 km/h (2 Bft) 1,00 h 0,00 h 12,3 km/h (3 Bft)
28.03.2011 17:00 20,8 C 13,2 C 1,0 UV-I 4,4 C 35 % 46 % 100 % 1017,1 hPa 0,0 l/m 11,2 km/h (2 Bft) 1,00 h 0,00 h 13,6 km/h (3 Bft)
28.03.2011 18:00 20,4 C 12,3 C 0,0 UV-I 2,1 C 36 % 52 % 61 % 1016,8 hPa 0,0 l/m 11,9 km/h (2 Bft) 0,50 h 0,00 h 13,4 km/h (3 Bft)
28.03.2011 19:00 19,8 C 10,7 C 0,0 UV-I 0,1 C 37 % 57 % 4 % 1016,8 hPa 0,0 l/m 10,6 km/h (2 Bft) 0,00 h 0,00 h 10,8 km/h (2 Bft)
28.03.2011 20:00 18,9 C 8,8 C 0,0 UV-I 0,0 C 38 % 62 % 0 % 1016,7 hPa 0,0 l/m 5,7 km/h (1 Bft) 0,00 h 0,00 h 6,4 km/h (2 Bft)
28.03.2011 21:00 17,9 C 7,3 C 0,0 UV-I 0,0 C 40 % 66 % 0 % 1017,1 hPa 0,0 l/m 0,1 km/h (0 Bft) 0,00 h 0,00 h 0,1 km/h (0 Bft)
28.03.2011 22:00 17,2 C 5,7 C 0,0 UV-I 0,0 C 41 % 71 % 0 % 1017,2 hPa 0,0 l/m 0,0 km/h (0 Bft) 0,00 h 0,00 h 0,0 km/h (0 Bft)
28.03.2011 23:00 16,8 C 4,3 C 0,0 UV-I 0,0 C 42 % 75 % 0 % 1017,2 hPa 0,0 l/m 0,0 km/h (0 Bft) 0,00 h 0,00 h 0,0 km/h (0 Bft)
29.03.2011 00:00 16,5 C 3,5 C 0,0 UV-I 0,0 C 43 % 79 % 0 % 1017,2 hPa 0,0 l/m 0,0 km/h (0 Bft) 0,00 h 0,00 h 0,2 km/h (0 Bft)
29.03.2011 01:00 16,1 C 2,7 C 0,0 UV-I 0,0 C 43 % 82 % 0 % 1017,1 hPa 0,0 l/m 0,0 km/h (0 Bft) 0,00 h 0,00 h 0,0 km/h (0 Bft)
29.03.2011 02:00 15,8 C 1,9 C 0,0 UV-I 0,0 C 44 % 84 % 0 % 1016,9 hPa 0,0 l/m 0,0 km/h (0 Bft) 0,00 h 0,00 h 0,0 km/h (0 Bft)
29.03.2011 03:00 15,6 C 1,4 C 0,0 UV-I 0,0 C 44 % 86 % 0 % 1016,4 hPa 0,0 l/m 0,0 km/h (0 Bft) 0,00 h 0,00 h 0,0 km/h (0 Bft)
29.03.2011 04:00 15,4 C 1,0 C 0,0 UV-I 0,0 C 44 % 87 % 0 % 1016,1 hPa 0,0 l/m 0,0 km/h (0 Bft) 0,00 h 0,00 h 0,0 km/h (0 Bft)
29.03.2011 05:00 15,2 C 0,4 C 0,0 UV-I 0,0 C 44 % 87 % 0 % 1015,8 hPa 0,0 l/m 0,0 km/h (0 Bft) 0,00 h 0,00 h 0,0 km/h (0 Bft)
29.03.2011 06:00 15,1 C 0,2 C 0,0 UV-I 0,0 C 44 % 88 % 0 % 1015,7 hPa 0,0 l/m 0,0 km/h (0 Bft) 0,00 h 0,00 h 0,0 km/h (0 Bft)
29.03.2011 07:00 14,9 C -0,2 C 0,0 UV-I 0,0 C 43 % 89 % 0 % 1015,9 hPa 0,0 l/m 0,0 km/h (0 Bft) 0,00 h 0,00 h 0,0 km/h (0 Bft)
29.03.2011 08:00 14,8 C 0,8 C 0,0 UV-I 0,5 C 44 % 90 % 13 % 1015,9 hPa 0,0 l/m 0,9 km/h (0 Bft) 0,10 h 0,00 h 1,8 km/h (1 Bft)
29.03.2011 09:00 14,9 C 3,9 C 0,0 UV-I 4,9 C 44 % 89 % 100 % 1016,1 hPa 0,0 l/m 3,7 km/h (1 Bft) 1,00 h 0,00 h 6,6 km/h (2 Bft)
29.03.2011 10:00 15,1 C 7,4 C 0,0 UV-I 6,7 C 45 % 82 % 100 % 1016,0 hPa 0,0 l/m 4,3 km/h (1 Bft) 1,00 h 0,00 h 6,2 km/h (2 Bft)
29.03.2011 11:00 15,4 C 10,1 C 0,9 UV-I 7,6 C 45 % 70 % 100 % 1015,9 hPa 0,0 l/m 3,6 km/h (1 Bft) 1,00 h 0,00 h 6,9 km/h (2 Bft)
29.03.2011 12:00 15,8 C 12,5 C 0,9 UV-I 7,7 C 45 % 58 % 100 % 1015,8 hPa 0,0 l/m 4,0 km/h (1 Bft) 1,00 h 0,00 h 7,0 km/h (2 Bft)
29.03.2011 13:00 16,5 C 14,3 C 4,6 UV-I 7,7 C 45 % 50 % 100 % 1015,5 hPa 0,0 l/m 3,4 km/h (1 Bft) 1,00 h 0,00 h 6,6 km/h (2 Bft)
29.03.2011 14:00 17,9 C 15,5 C 6,1 UV-I 7,3 C 43 % 45 % 100 % 1015,9 hPa 0,0 l/m 5,3 km/h (1 Bft) 1,00 h 0,00 h 7,9 km/h (2 Bft)
29.03.2011 15:00 19,2 C 16,8 C 6,2 UV-I 6,8 C 40 % 42 % 100 % 1015,7 hPa 0,0 l/m 3,9 km/h (1 Bft) 1,00 h 0,00 h 6,4 km/h (2 Bft)
29.03.2011 16:00 20,1 C 17,4 C 3,9 UV-I 6,2 C 38 % 40 % 100 % 1015,2 hPa 0,0 l/m 3,4 km/h (1 Bft) 1,00 h 0,00 h 5,5 km/h (1 Bft)
29.03.2011 17:00 20,6 C 17,7 C 0,9 UV-I 4,8 C 37 % 39 % 100 % 1014,5 hPa 0,0 l/m 2,5 km/h (1 Bft) 1,00 h 0,00 h 4,2 km/h (1 Bft)
29.03.2011 18:00 20,4 C 16,9 C 0,0 UV-I 2,3 C 38 % 41 % 64 % 1013,9 hPa 0,0 l/m 4,7 km/h (1 Bft) 0,63 h 0,00 h 6,7 km/h (2 Bft)
29.03.2011 19:00 19,9 C 15,2 C 0,0 UV-I 0,1 C 38 % 46 % 2 % 1013,8 hPa 0,0 l/m 1,4 km/h (1 Bft) 0,00 h 0,00 h 1,8 km/h (1 Bft)
29.03.2011 20:00 19,3 C 12,3 C 0,0 UV-I 0,0 C 40 % 54 % 0 % 1013,6 hPa 0,0 l/m 0,0 km/h (0 Bft) 0,00 h 0,00 h 0,0 km/h (0 Bft)
29.03.2011 21:00 18,4 C 9,5 C 0,0 UV-I 0,0 C 41 % 63 % 0 % 1013,6 hPa 0,0 l/m 0,1 km/h (0 Bft) 0,00 h 0,00 h 0,0 km/h (0 Bft)
29.03.2011 22:00 17,7 C 7,7 C 0,0 UV-I 0,0 C 43 % 70 % 0 % 1013,7 hPa 0,0 l/m 0,0 km/h (0 Bft) 0,00 h 0,00 h 0,0 km/h (0 Bft)
29.03.2011 23:00 17,3 C 6,5 C 0,0 UV-I 0,0 C 44 % 74 % 0 % 1013,8 hPa 0,0 l/m 0,0 km/h (0 Bft) 0,00 h 0,00 h 0,0 km/h (0 Bft)
30.03.2011 00:00 17,0 C 5,6 C 0,0 UV-I 0,0 C 44 % 78 % 0 % 1013,8 hPa 0,0 l/m 0,0 km/h (0 Bft) 0,00 h 0,00 h 0,0 km/h (0 Bft)
30.03.2011 01:00 16,7 C 4,8 C 0,0 UV-I 0,0 C 45 % 80 % 0 % 1013,7 hPa 0,0 l/m 0,0 km/h (0 Bft) 0,00 h 0,00 h 0,0 km/h (0 Bft)
30.03.2011 02:00 16,4 C 4,4 C 0,0 UV-I 0,0 C 45 % 83 % 0 % 1013,3 hPa 0,0 l/m 0,0 km/h (0 Bft) 0,00 h 0,00 h 0,0 km/h (0 Bft)
30.03.2011 03:00 16,1 C 3,5 C 0,0 UV-I 0,0 C 46 % 85 % 0 % 1012,9 hPa 0,0 l/m 0,0 km/h (0 Bft) 0,00 h 0,00 h 0,0 km/h (0 Bft)
30.03.2011 04:00 15,9 C 3,1 C 0,0 UV-I 0,0 C 46 % 87 % 0 % 1013,0 hPa 0,0 l/m 0,0 km/h (0 Bft) 0,00 h 0,00 h 0,0 km/h (0 Bft)
30.03.2011 05:00 15,7 C 2,8 C 0,0 UV-I 0,0 C 46 % 88 % 0 % 1013,0 hPa 0,0 l/m 0,1 km/h (0 Bft) 0,00 h 0,00 h 0,4 km/h (0 Bft)
30.03.2011 06:00 15,6 C 2,8 C 0,0 UV-I 0,0 C 46 % 88 % 0 % 1013,0 hPa 0,0 l/m 0,3 km/h (0 Bft) 0,00 h 0,00 h 0,9 km/h (0 Bft)
30.03.2011 07:00 15,4 C 3,0 C 0,0 UV-I 0,0 C 46 % 89 % 0 % 1013,2 hPa 0,0 l/m 0,5 km/h (0 Bft) 0,00 h 0,00 h 2,2 km/h (1 Bft)
30.03.2011 08:00 15,4 C 4,0 C 0,0 UV-I 0,4 C 47 % 89 % 12 % 1013,9 hPa 0,0 l/m 2,6 km/h (1 Bft) 0,03 h 0,00 h 4,0 km/h (1 Bft)
30.03.2011 09:00 15,5 C 6,4 C 0,0 UV-I 3,2 C 47 % 87 % 81 % 1014,3 hPa 0,0 l/m 5,4 km/h (1 Bft) 0,60 h 0,00 h 6,7 km/h (2 Bft)
30.03.2011 10:00 15,9 C 9,2 C 0,0 UV-I 2,4 C 47 % 81 % 68 % 1014,8 hPa 0,0 l/m 4,3 km/h (1 Bft) 0,03 h 0,00 h 5,8 km/h (2 Bft)
30.03.2011 11:00 16,3 C 11,0 C 0,0 UV-I 1,7 C 47 % 75 % 47 % 1015,0 hPa 0,0 l/m 4,0 km/h (1 Bft) 0,00 h 0,00 h 4,0 km/h (1 Bft)
30.03.2011 12:00 16,7 C 13,0 C 0,3 UV-I 3,8 C 47 % 69 % 86 % 1014,9 hPa 0,0 l/m 4,9 km/h (1 Bft) 0,47 h 0,00 h 6,9 km/h (2 Bft)
30.03.2011 13:00 17,0 C 14,9 C 0,3 UV-I 3,9 C 47 % 66 % 99 % 1014,6 hPa 0,0 l/m 5,6 km/h (1 Bft) 1,00 h 0,00 h 10,6 km/h (2 Bft)
30.03.2011 14:00 17,7 C 16,1 C 0,4 UV-I 3,3 C 47 % 63 % 88 % 1014,5 hPa 0,0 l/m 5,9 km/h (2 Bft) 0,70 h 0,00 h 8,6 km/h (2 Bft)
30.03.2011 15:00 18,2 C 16,4 C 0,1 UV-I 1,8 C 47 % 61 % 51 % 1014,1 hPa 0,0 l/m 7,6 km/h (2 Bft) 0,00 h 0,00 h 10,6 km/h (2 Bft)
30.03.2011 16:00 18,6 C 16,8 C 0,0 UV-I 2,1 C 47 % 58 % 59 % 1014,0 hPa 0,0 l/m 9,2 km/h (2 Bft) 0,03 h 0,00 h 11,8 km/h (2 Bft)
30.03.2011 17:00 19,2 C 17,0 C 0,0 UV-I 2,1 C 46 % 55 % 60 % 1014,1 hPa 0,0 l/m 8,5 km/h (2 Bft) 0,43 h 0,00 h 10,7 km/h (2 Bft)
30.03.2011 18:00 19,1 C 14,7 C 0,0 UV-I 0,0 C 45 % 64 % 0 % 1014,1 hPa 0,0 l/m 6,5 km/h (2 Bft) 0,00 h 0,00 h 8,4 km/h (2 Bft)
30.03.2011 19:00 18,6 C 13,1 C 0,0 UV-I 0,0 C 47 % 73 % 0 % 1014,3 hPa 0,0 l/m 5,5 km/h (1 Bft) 0,00 h 0,00 h 8,6 km/h (2 Bft)
30.03.2011 20:00 17,9 C 11,9 C 0,0 UV-I 0,0 C 50 % 81 % 0 % 1014,7 hPa 0,0 l/m 2,2 km/h (1 Bft) 0,00 h 0,00 h 3,9 km/h (1 Bft)
30.03.2011 21:00 17,6 C 11,8 C 0,0 UV-I 0,0 C 51 % 83 % 0 % 1014,9 hPa 0,0 l/m 0,7 km/h (0 Bft) 0,00 h 0,00 h 2,4 km/h (1 Bft)
30.03.2011 22:00 17,4 C 11,4 C 0,0 UV-I 0,0 C 53 % 84 % 0 % 1014,9 hPa 0,2 l/m 0,5 km/h (0 Bft) 0,00 h 0,00 h 0,8 km/h (0 Bft)
30.03.2011 23:00 17,2 C 11,0 C 0,0 UV-I 0,0 C 53 % 86 % 0 % 1014,9 hPa 0,0 l/m 0,7 km/h (0 Bft) 0,00 h 0,00 h 1,7 km/h (1 Bft)
31.03.2011 00:00 17,2 C 11,3 C 0,0 UV-I 0,0 C 54 % 85 % 0 % 1015,0 hPa 0,0 l/m 2,6 km/h (1 Bft) 0,00 h 0,00 h 5,2 km/h (1 Bft)
31.03.2011 01:00 17,1 C 10,9 C 0,0 UV-I 0,0 C 54 % 84 % 0 % 1015,1 hPa 0,0 l/m 1,2 km/h (1 Bft) 0,00 h 0,00 h 4,3 km/h (1 Bft)
31.03.2011 02:00 17,0 C 10,9 C 0,0 UV-I 0,0 C 54 % 83 % 0 % 1014,7 hPa 0,0 l/m 2,6 km/h (1 Bft) 0,00 h 0,00 h 5,3 km/h (1 Bft)
31.03.2011 03:00 16,9 C 11,1 C 0,0 UV-I 0,0 C 54 % 81 % 0 % 1014,5 hPa 0,0 l/m 5,9 km/h (2 Bft) 0,00 h 0,00 h 10,5 km/h (2 Bft)
31.03.2011 04:00 16,9 C 10,5 C 0,0 UV-I 0,0 C 55 % 86 % 0 % 1014,2 hPa 0,0 l/m 5,7 km/h (1 Bft) 0,00 h 0,00 h 8,4 km/h (2 Bft)
31.03.2011 05:00 16,8 C 10,6 C 0,0 UV-I 0,0 C 55 % 87 % 0 % 1014,0 hPa 0,0 l/m 4,2 km/h (1 Bft) 0,00 h 0,00 h 7,0 km/h (2 Bft)
31.03.2011 06:00 16,8 C 10,9 C 0,0 UV-I 0,0 C 56 % 86 % 0 % 1014,1 hPa 0,0 l/m 5,0 km/h (1 Bft) 0,00 h 0,00 h 8,0 km/h (2 Bft)
31.03.2011 07:00 16,7 C 11,0 C 0,0 UV-I 0,0 C 56 % 85 % 0 % 1014,5 hPa 0,0 l/m 3,5 km/h (1 Bft) 0,00 h 0,00 h 5,9 km/h (2 Bft)
31.03.2011 08:00 16,7 C 11,3 C 0,0 UV-I 0,1 C 56 % 85 % 2 % 1014,7 hPa 0,0 l/m 3,8 km/h (1 Bft) 0,00 h 0,00 h 7,3 km/h (2 Bft)
31.03.2011 09:00 16,8 C 11,8 C 0,0 UV-I 0,1 C 56 % 84 % 4 % 1014,8 hPa 0,0 l/m 4,0 km/h (1 Bft) 0,00 h 0,00 h 7,5 km/h (2 Bft)
31.03.2011 10:00 17,0 C 12,4 C 0,0 UV-I 0,2 C 56 % 83 % 6 % 1014,4 hPa 0,0 l/m 6,1 km/h (2 Bft) 0,00 h 0,00 h 8,6 km/h (2 Bft)
31.03.2011 11:00 17,2 C 12,6 C 0,0 UV-I 0,0 C 56 % 84 % 0 % 1014,2 hPa 1,0 l/m 4,8 km/h (1 Bft) 0,00 h 0,00 h 8,3 km/h (2 Bft)
31.03.2011 12:00 17,2 C 12,0 C 0,0 UV-I 0,0 C 57 % 89 % 0 % 1014,0 hPa 2,7 l/m 5,7 km/h (1 Bft) 0,00 h 0,00 h 9,3 km/h (2 Bft)
31.03.2011 13:00 17,2 C 12,0 C 0,0 UV-I 0,0 C 59 % 90 % 0 % 1013,9 hPa 1,0 l/m 6,2 km/h (2 Bft) 0,00 h 0,00 h 9,1 km/h (2 Bft)
31.03.2011 14:00 17,2 C 12,6 C 0,0 UV-I 0,0 C 61 % 91 % 1 % 1013,7 hPa 0,8 l/m 8,7 km/h (2 Bft) 0,00 h 0,00 h 14,1 km/h (3 Bft)
31.03.2011 15:00 17,4 C 13,6 C 0,0 UV-I 0,5 C 62 % 88 % 14 % 1013,7 hPa 0,0 l/m 11,5 km/h (2 Bft) 0,00 h 0,00 h 15,7 km/h (3 Bft)
31.03.2011 16:00 17,6 C 14,0 C 0,0 UV-I 0,6 C 61 % 86 % 18 % 1014,2 hPa 0,0 l/m 10,5 km/h (2 Bft) 0,00 h 0,00 h 13,4 km/h (3 Bft)
31.03.2011 17:00 17,6 C 14,2 C 0,0 UV-I 0,1 C 61 % 85 % 3 % 1014,3 hPa 0,0 l/m 9,3 km/h (2 Bft) 0,00 h 0,00 h 11,8 km/h (2 Bft)
31.03.2011 18:00 17,7 C 14,8 C 0,0 UV-I 0,0 C 61 % 82 % 0 % 1014,8 hPa 0,0 l/m 10,1 km/h (2 Bft) 0,00 h 0,00 h 14,4 km/h (3 Bft)
31.03.2011 19:00 17,7 C 15,0 C 0,0 UV-I 0,0 C 61 % 80 % 0 % 1015,3 hPa 0,0 l/m 8,2 km/h (2 Bft) 0,00 h 0,00 h 9,6 km/h (2 Bft)
31.03.2011 20:00 17,6 C 14,7 C 0,0 UV-I 0,0 C 61 % 80 % 0 % 1016,1 hPa 0,0 l/m 7,5 km/h (2 Bft) 0,00 h 0,00 h 10,4 km/h (2 Bft)
31.03.2011 21:00 17,6 C 14,4 C 0,0 UV-I 0,0 C 61 % 80 % 0 % 1016,7 hPa 0,0 l/m 7,1 km/h (2 Bft) 0,00 h 0,00 h 10,3 km/h (2 Bft)
31.03.2011 22:00 17,5 C 14,3 C 0,0 UV-I 0,0 C 61 % 81 % 0 % 1017,1 hPa 0,0 l/m 7,9 km/h (2 Bft) 0,00 h 0,00 h 9,4 km/h (2 Bft)
31.03.2011 23:00 17,5 C 14,2 C 0,0 UV-I 0,0 C 61 % 83 % 0 % 1018,1 hPa 0,0 l/m 8,2 km/h (2 Bft) 0,00 h 0,00 h 11,1 km/h (2 Bft)
01.04.2011 00:00 17,5 C 14,3 C 0,0 UV-I 0,0 C 62 % 83 % 0 % 1018,6 hPa 0,0 l/m 8,1 km/h (2 Bft) 0,00 h 0,00 h 11,4 km/h (2 Bft)
01.04.2011 01:00 17,4 C 13,8 C 0,0 UV-I 0,0 C 62 % 83 % 0 % 1019,1 hPa 0,0 l/m 6,0 km/h (2 Bft) 0,00 h 0,00 h 9,6 km/h (2 Bft)
01.04.2011 02:00 17,4 C 13,5 C 0,0 UV-I 0,0 C 62 % 84 % 0 % 1019,5 hPa 0,0 l/m 5,5 km/h (1 Bft) 0,00 h 0,00 h 8,7 km/h (2 Bft)
01.04.2011 03:00 17,3 C 13,3 C 0,0 UV-I 0,0 C 61 % 83 % 0 % 1020,0 hPa 0,0 l/m 6,3 km/h (2 Bft) 0,00 h 0,00 h 8,0 km/h (2 Bft)
01.04.2011 04:00 17,2 C 13,1 C 0,0 UV-I 0,0 C 61 % 84 % 0 % 1020,4 hPa 0,0 l/m 2,4 km/h (1 Bft) 0,00 h 0,00 h 5,1 km/h (1 Bft)
01.04.2011 05:00 17,3 C 13,0 C 0,0 UV-I 0,0 C 61 % 83 % 0 % 1020,6 hPa 0,0 l/m 6,0 km/h (2 Bft) 0,00 h 0,00 h 7,7 km/h (2 Bft)
01.04.2011 06:00 17,2 C 12,6 C 0,0 UV-I 0,0 C 60 % 82 % 0 % 1021,1 hPa 0,0 l/m 3,0 km/h (1 Bft) 0,00 h 0,00 h 5,0 km/h (1 Bft)
01.04.2011 07:00 17,2 C 12,5 C 0,0 UV-I 0,0 C 60 % 84 % 0 % 1021,4 hPa 0,0 l/m 2,2 km/h (1 Bft) 0,00 h 0,00 h 3,8 km/h (1 Bft)
01.04.2011 08:00 17,2 C 12,9 C 0,0 UV-I 0,1 C 61 % 84 % 2 % 1021,9 hPa 0,0 l/m 4,7 km/h (1 Bft) 0,00 h 0,00 h 8,6 km/h (2 Bft)
01.04.2011 09:00 17,5 C 13,8 C 0,0 UV-I 1,2 C 61 % 83 % 34 % 1022,2 hPa 0,0 l/m 6,5 km/h (2 Bft) 0,00 h 0,00 h 10,5 km/h (2 Bft)
01.04.2011 10:00 17,6 C 14,1 C 0,0 UV-I 0,4 C 61 % 83 % 10 % 1022,6 hPa 0,0 l/m 3,2 km/h (1 Bft) 0,00 h 0,00 h 5,0 km/h (1 Bft)
01.04.2011 11:00 17,7 C 14,4 C 0,0 UV-I 0,3 C 61 % 84 % 8 % 1022,6 hPa 0,0 l/m 5,2 km/h (1 Bft) 0,00 h 0,00 h 6,5 km/h (2 Bft)
01.04.2011 12:00 17,9 C 15,1 C 0,0 UV-I 0,8 C 62 % 83 % 24 % 1022,8 hPa 0,0 l/m 8,8 km/h (2 Bft) 0,00 h 0,00 h 12,1 km/h (2 Bft)
01.04.2011 13:00 18,2 C 15,5 C 0,0 UV-I 1,0 C 62 % 83 % 29 % 1023,0 hPa 0,0 l/m 9,3 km/h (2 Bft) 0,00 h 0,00 h 12,1 km/h (2 Bft)
01.04.2011 14:00 18,3 C 15,6 C 0,0 UV-I 0,7 C 62 % 83 % 19 % 1023,2 hPa 0,0 l/m 6,3 km/h (2 Bft) 0,00 h 0,00 h 9,2 km/h (2 Bft)
01.04.2011 15:00 18,5 C 16,2 C 0,0 UV-I 1,2 C 62 % 81 % 34 % 1022,9 hPa 0,0 l/m 5,8 km/h (2 Bft) 0,00 h 0,00 h 8,9 km/h (2 Bft)
01.04.2011 16:00 18,7 C 17,0 C 0,0 UV-I 1,6 C 62 % 78 % 44 % 1022,6 hPa 0,0 l/m 6,2 km/h (2 Bft) 0,00 h 0,00 h 7,9 km/h (2 Bft)
01.04.2011 17:00 19,0 C 17,2 C 0,0 UV-I 1,2 C 61 % 76 % 35 % 1022,5 hPa 0,0 l/m 5,2 km/h (1 Bft) 0,00 h 0,00 h 8,0 km/h (2 Bft)
01.04.2011 18:00 19,1 C 16,5 C 0,0 UV-I 0,1 C 60 % 77 % 2 % 1022,4 hPa 0,0 l/m 3,8 km/h (1 Bft) 0,00 h 0,00 h 6,0 km/h (2 Bft)
01.04.2011 19:00 18,9 C 15,7 C 0,0 UV-I 0,0 C 60 % 79 % 0 % 1022,4 hPa 0,0 l/m 0,3 km/h (0 Bft) 0,00 h 0,00 h 0,5 km/h (0 Bft)
01.04.2011 20:00 18,7 C 14,7 C 0,0 UV-I 0,0 C 61 % 82 % 0 % 1022,4 hPa 0,0 l/m 0,1 km/h (0 Bft) 0,00 h 0,00 h 0,0 km/h (0 Bft)
01.04.2011 21:00 18,4 C 13,7 C 0,0 UV-I 0,0 C 61 % 84 % 0 % 1022,2 hPa 0,0 l/m 0,2 km/h (0 Bft) 0,00 h 0,00 h 0,7 km/h (0 Bft)
01.04.2011 22:00 18,2 C 13,1 C 0,0 UV-I 0,0 C 62 % 87 % 0 % 1022,2 hPa 0,0 l/m 0,0 km/h (0 Bft) 0,00 h 0,00 h 0,0 km/h (0 Bft)
01.04.2011 23:00 18,1 C 12,7 C 0,0 UV-I 0,0 C 62 % 88 % 0 % 1021,7 hPa 0,0 l/m 0,2 km/h (0 Bft) 0,00 h 0,00 h 0,7 km/h (0 Bft)
02.04.2011 00:00 18,0 C 12,4 C 0,0 UV-I 0,0 C 62 % 90 % 0 % 1021,5 hPa 0,0 l/m 1,5 km/h (1 Bft) 0,00 h 0,00 h 3,1 km/h (1 Bft)
02.04.2011 01:00 17,9 C 11,8 C 0,0 UV-I 0,0 C 62 % 90 % 0 % 1021,3 hPa 0,0 l/m 1,5 km/h (1 Bft) 0,00 h 0,00 h 3,4 km/h (1 Bft)
02.04.2011 02:00 17,7 C 11,0 C 0,0 UV-I 0,0 C 62 % 90 % 0 % 1021,0 hPa 0,0 l/m 1,9 km/h (1 Bft) 0,00 h 0,00 h 3,2 km/h (1 Bft)
02.04.2011 03:00 17,5 C 10,3 C 0,0 UV-I 0,0 C 62 % 91 % 0 % 1020,4 hPa 0,0 l/m 1,3 km/h (1 Bft) 0,00 h 0,00 h 3,0 km/h (1 Bft)
02.04.2011 04:00 17,2 C 10,1 C 0,0 UV-I 0,0 C 63 % 91 % 0 % 1019,8 hPa 0,0 l/m 3,6 km/h (1 Bft) 0,00 h 0,00 h 6,9 km/h (2 Bft)
02.04.2011 05:00 17,1 C 10,1 C 0,0 UV-I 0,0 C 63 % 91 % 0 % 1019,1 hPa 0,0 l/m 7,4 km/h (2 Bft) 0,00 h 0,00 h 10,3 km/h (2 Bft)
02.04.2011 06:00 17,0 C 9,9 C 0,0 UV-I 0,0 C 63 % 92 % 0 % 1018,6 hPa 0,0 l/m 4,6 km/h (1 Bft) 0,00 h 0,00 h 6,6 km/h (2 Bft)
02.04.2011 07:00 16,9 C 9,6 C 0,0 UV-I 0,0 C 63 % 92 % 0 % 1018,1 hPa 0,0 l/m 2,8 km/h (1 Bft) 0,00 h 0,00 h 5,3 km/h (1 Bft)
02.04.2011 08:00 16,9 C 10,3 C 0,0 UV-I 0,3 C 63 % 93 % 8 % 1017,8 hPa 0,1 l/m 6,2 km/h (2 Bft) 0,07 h 0,00 h 9,9 km/h (2 Bft)
02.04.2011 09:00 17,0 C 12,6 C 0,0 UV-I 4,1 C 63 % 91 % 98 % 1017,5 hPa 0,0 l/m 13,4 km/h (3 Bft) 1,00 h 0,00 h 18,0 km/h (3 Bft)
02.04.2011 10:00 17,2 C 15,4 C 2,1 UV-I 5,4 C 63 % 85 % 100 % 1017,5 hPa 0,0 l/m 10,9 km/h (2 Bft) 1,00 h 0,00 h 14,2 km/h (3 Bft)
02.04.2011 11:00 17,6 C 17,6 C 3,2 UV-I 5,1 C 63 % 76 % 100 % 1017,1 hPa 0,0 l/m 13,5 km/h (3 Bft) 0,93 h 0,00 h 17,4 km/h (3 Bft)
02.04.2011 12:00 18,0 C 19,7 C 1,9 UV-I 5,3 C 62 % 68 % 100 % 1016,5 hPa 0,0 l/m 11,2 km/h (2 Bft) 1,00 h 0,00 h 15,5 km/h (3 Bft)
02.04.2011 13:00 18,7 C 21,8 C 6,0 UV-I 4,7 C 61 % 61 % 100 % 1015,4 hPa 0,0 l/m 13,4 km/h (3 Bft) 1,00 h 0,00 h 17,5 km/h (3 Bft)
02.04.2011 14:00 20,1 C 23,6 C 7,3 UV-I 4,5 C 59 % 55 % 100 % 1015,2 hPa 0,0 l/m 12,3 km/h (3 Bft) 1,00 h 0,00 h 16,0 km/h (3 Bft)
02.04.2011 15:00 21,2 C 24,6 C 6,0 UV-I 3,6 C 56 % 50 % 96 % 1014,4 hPa 0,0 l/m 11,6 km/h (2 Bft) 0,90 h 0,00 h 14,8 km/h (3 Bft)
02.04.2011 16:00 21,8 C 24,5 C 1,7 UV-I 1,9 C 54 % 48 % 54 % 1013,6 hPa 0,0 l/m 10,9 km/h (2 Bft) 0,13 h 0,00 h 15,3 km/h (3 Bft)
02.04.2011 17:00 21,9 C 25,4 C 0,2 UV-I 2,5 C 53 % 39 % 73 % 1013,0 hPa 0,0 l/m 6,8 km/h (2 Bft) 0,23 h 0,00 h 10,4 km/h (2 Bft)
02.04.2011 18:00 21,9 C 25,2 C 0,1 UV-I 1,2 C 51 % 37 % 34 % 1012,7 hPa 0,0 l/m 5,0 km/h (1 Bft) 0,20 h 0,00 h 8,4 km/h (2 Bft)
02.04.2011 19:00 21,7 C 23,7 C 0,0 UV-I 0,1 C 51 % 42 % 4 % 1012,2 hPa 0,0 l/m 3,3 km/h (1 Bft) 0,00 h 0,00 h 5,2 km/h (1 Bft)
02.04.2011 20:00 21,3 C 21,4 C 0,0 UV-I 0,0 C 51 % 49 % 0 % 1012,3 hPa 0,0 l/m 1,7 km/h (1 Bft) 0,00 h 0,00 h 4,1 km/h (1 Bft)
02.04.2011 21:00 21,0 C 19,7 C 0,0 UV-I 0,0 C 52 % 55 % 0 % 1012,3 hPa 0,0 l/m 1,0 km/h (0 Bft) 0,00 h 0,00 h 2,3 km/h (1 Bft)
02.04.2011 22:00 20,7 C 18,3 C 0,0 UV-I 0,0 C 53 % 59 % 0 % 1012,3 hPa 0,0 l/m 0,3 km/h (0 Bft) 0,00 h 0,00 h 1,0 km/h (0 Bft)
02.04.2011 23:00 20,3 C 16,5 C 0,0 UV-I 0,0 C 54 % 65 % 0 % 1012,0 hPa 0,0 l/m 0,1 km/h (0 Bft) 0,00 h 0,00 h 0,2 km/h (0 Bft)
03.04.2011 00:00 20,0 C 15,3 C 0,0 UV-I 0,0 C 55 % 71 % 0 % 1012,3 hPa 0,0 l/m 1,2 km/h (1 Bft) 0,00 h 0,00 h 1,7 km/h (1 Bft)
03.04.2011 01:00 19,7 C 14,3 C 0,0 UV-I 0,0 C 56 % 74 % 0 % 1012,9 hPa 0,0 l/m 0,0 km/h (0 Bft) 0,00 h 0,00 h 0,0 km/h (0 Bft)
03.04.2011 02:00 19,5 C 13,4 C 0,0 UV-I 0,0 C 56 % 76 % 0 % 1013,0 hPa 0,0 l/m 0,3 km/h (0 Bft) 0,00 h 0,00 h 0,8 km/h (0 Bft)
03.04.2011 03:00 19,4 C 13,4 C 0,0 UV-I 0,0 C 56 % 77 % 0 % 1012,9 hPa 0,0 l/m 0,5 km/h (0 Bft) 0,00 h 0,00 h 1,2 km/h (1 Bft)
03.04.2011 04:00 19,3 C 13,2 C 0,0 UV-I 0,0 C 57 % 78 % 0 % 1012,7 hPa 0,0 l/m 0,1 km/h (0 Bft) 0,00 h 0,00 h 0,3 km/h (0 Bft)
03.04.2011 05:00 19,2 C 13,1 C 0,0 UV-I 0,0 C 57 % 81 % 0 % 1013,4 hPa 0,0 l/m 0,4 km/h (0 Bft) 0,00 h 0,00 h 0,8 km/h (0 Bft)
03.04.2011 06:00 19,2 C 13,0 C 0,0 UV-I 0,0 C 57 % 81 % 0 % 1012,8 hPa 0,0 l/m 0,1 km/h (0 Bft) 0,00 h 0,00 h 0,6 km/h (0 Bft)
03.04.2011 07:00 19,1 C 12,7 C 0,0 UV-I 0,0 C 57 % 83 % 0 % 1012,9 hPa 0,0 l/m 0,1 km/h (0 Bft) 0,00 h 0,00 h 1,0 km/h (0 Bft)
03.04.2011 08:00 19,1 C 12,7 C 0,0 UV-I 0,0 C 58 % 85 % 0 % 1013,6 hPa 0,0 l/m 3,0 km/h (1 Bft) 0,00 h 0,00 h 5,8 km/h (1 Bft)
03.04.2011 09:00 19,1 C 12,8 C 0,0 UV-I 0,6 C 58 % 86 % 18 % 1013,9 hPa 0,0 l/m 2,0 km/h (1 Bft) 0,00 h 0,00 h 4,5 km/h (1 Bft)
03.04.2011 10:00 19,2 C 13,8 C 0,0 UV-I 2,3 C 58 % 82 % 66 % 1014,4 hPa 0,0 l/m 3,5 km/h (1 Bft) 0,07 h 0,00 h 5,7 km/h (1 Bft)
03.04.2011 11:00 19,6 C 15,0 C 0,2 UV-I 3,9 C 57 % 77 % 89 % 1014,3 hPa 0,0 l/m 4,5 km/h (1 Bft) 0,73 h 0,00 h 7,7 km/h (2 Bft)
03.04.2011 12:00 19,8 C 15,0 C 0,0 UV-I 1,1 C 56 % 76 % 31 % 1014,6 hPa 0,0 l/m 4,7 km/h (1 Bft) 0,13 h 0,00 h 7,3 km/h (2 Bft)
03.04.2011 13:00 19,6 C 13,2 C 0,0 UV-I 0,0 C 56 % 81 % 0 % 1015,1 hPa 1,2 l/m 5,8 km/h (2 Bft) 0,00 h 0,00 h 8,2 km/h (2 Bft)
03.04.2011 14:00 19,3 C 12,4 C 0,0 UV-I 0,0 C 57 % 88 % 0 % 1014,8 hPa 1,0 l/m 3,5 km/h (1 Bft) 0,00 h 0,00 h 5,4 km/h (1 Bft)
03.04.2011 15:00 19,2 C 12,2 C 0,0 UV-I 0,0 C 58 % 90 % 0 % 1014,8 hPa 0,5 l/m 2,3 km/h (1 Bft) 0,00 h 0,00 h 5,0 km/h (1 Bft)
03.04.2011 16:00 19,2 C 12,4 C 0,0 UV-I 0,4 C 59 % 89 % 11 % 1014,5 hPa 0,1 l/m 1,3 km/h (1 Bft) 0,00 h 0,00 h 1,3 km/h (1 Bft)
03.04.2011 17:00 19,2 C 12,7 C 0,0 UV-I 0,2 C 59 % 89 % 7 % 1014,4 hPa 0,0 l/m 1,5 km/h (1 Bft) 0,00 h 0,00 h 3,7 km/h (1 Bft)
03.04.2011 18:00 19,1 C 12,7 C 0,0 UV-I 0,0 C 59 % 89 % 0 % 1014,6 hPa 0,0 l/m 0,7 km/h (0 Bft) 0,00 h 0,00 h 1,2 km/h (1 Bft)
03.04.2011 19:00 18,9 C 12,5 C 0,0 UV-I 0,0 C 60 % 89 % 0 % 1014,8 hPa 0,3 l/m 0,0 km/h (0 Bft) 0,00 h 0,00 h 0,0 km/h (0 Bft)
03.04.2011 20:00 18,8 C 12,1 C 0,0 UV-I 0,0 C 61 % 90 % 0 % 1015,2 hPa 0,2 l/m 0,1 km/h (0 Bft) 0,00 h 0,00 h 0,4 km/h (0 Bft)
03.04.2011 21:00 18,6 C 11,7 C 0,0 UV-I 0,0 C 61 % 91 % 0 % 1015,7 hPa 0,5 l/m 1,6 km/h (1 Bft) 0,00 h 0,00 h 4,2 km/h (1 Bft)
03.04.2011 22:00 18,5 C 11,3 C 0,0 UV-I 0,0 C 61 % 91 % 0 % 1015,9 hPa 0,4 l/m 1,3 km/h (1 Bft) 0,00 h 0,00 h 2,4 km/h (1 Bft)
03.04.2011 23:00 18,3 C 10,8 C 0,0 UV-I 0,0 C 60 % 90 % 0 % 1016,0 hPa 0,0 l/m 0,5 km/h (0 Bft) 0,00 h 0,00 h 1,5 km/h (1 Bft)
Min-Datum _ 29.03.11 29.03.11 28.03.11 28.03.11 28.03.11 28.03.11 28.03.11 02.04.11 - 28.03.11 - - 28.03.11
_ Min-Zeit 07:12 07:36 00:00 00:00 16:56 16:06 00:00 21:56 - 00:00 - - 00:00
Minimum _ 14,8 C -0,4 C 0,0 UV-I 0,0 C 35 % 33 % 0 % 1011,8 hPa - 0,0 km/h (0 Bft) - - 0,0 km/h (0 Bft)
Max-Datum _ 02.04.11 02.04.11 02.04.11 29.03.11 02.04.11 02.04.11 28.03.11 01.04.11 31.03.11 02.04.11 28.03.11 28.03.11 31.03.11
_ Max-Zeit 17:34 17:56 14:46 13:44 01:08 07:56 08:50 13:56 12:08 09:18 08:46 00:00 14:34
Maximum _ 22,0 C 26,3 C 7,9 UV-I 8,6 C 63 % 93 % 100 % 1023,4 hPa 2,7 l/m 16,1 km/h
N-NO (3 Bft)
0,03 h 0,00 h 35,4 km/h
O-NO (5 Bft)
Durchschnitt _ 17,8 C 11,7 C 0,5 UV-I 1,2 C 52 % 76 % 24 % 1015,9 hPa #9,7 l/m 4,0 km/h (1 Bft) #31:10 h #0 min. 5,8 km/h (2 Bft)
© 2012 W. Hausmann